sensor_id;sensor_type;location;lat;lon;timestamp;pressure;altitude;pressure_sealevel;temperature;humidity
70954;BME280;58618;47.490;8.736;2023-04-22T00:01:16;96009.06;;;6.51;100.00
70954;BME280;58618;47.490;8.736;2023-04-22T00:04:04;96013.72;;;6.44;100.00
70954;BME280;58618;47.490;8.736;2023-04-22T00:06:53;96007.56;;;6.34;100.00
70954;BME280;58618;47.490;8.736;2023-04-22T00:09:41;96012.94;;;6.33;100.00
70954;BME280;58618;47.490;8.736;2023-04-22T00:12:28;96009.09;;;6.30;100.00
70954;BME280;58618;47.490;8.736;2023-04-22T00:15:16;96007.84;;;6.23;100.00
70954;BME280;58618;47.490;8.736;2023-04-22T00:18:06;96010.63;;;6.21;100.00
70954;BME280;58618;47.490;8.736;2023-04-22T00:20:58;96009.09;;;6.15;100.00
70954;BME280;58618;47.490;8.736;2023-04-22T00:23:47;96007.56;;;6.14;100.00
70954;BME280;58618;47.490;8.736;2023-04-22T00:26:34;96002.44;;;6.09;100.00
70954;BME280;58618;47.490;8.736;2023-04-22T00:29:22;95992.19;;;6.04;100.00
70954;BME280;58618;47.490;8.736;2023-04-22T00:32:09;95997.06;;;5.96;100.00
70954;BME280;58618;47.490;8.736;2023-04-22T00:34:56;95992.72;;;5.96;100.00
70954;BME280;58618;47.490;8.736;2023-04-22T00:37:43;95989.88;;;5.92;100.00
70954;BME280;58618;47.490;8.736;2023-04-22T00:40:32;95991.16;;;5.90;100.00
70954;BME280;58618;47.490;8.736;2023-04-22T00:43:19;95980.38;;;5.83;100.00
70954;BME280;58618;47.490;8.736;2023-04-22T00:46:07;95976.78;;;5.69;100.00
70954;BME280;58618;47.490;8.736;2023-04-22T00:48:55;95981.91;;;5.64;100.00
70954;BME280;58618;47.490;8.736;2023-04-22T00:51:43;95989.03;;;5.57;100.00
70954;BME280;58618;47.490;8.736;2023-04-22T00:54:31;95981.88;;;5.53;100.00
70954;BME280;58618;47.490;8.736;2023-04-22T00:57:21;95992.63;;;5.61;100.00
70954;BME280;58618;47.490;8.736;2023-04-22T01:00:09;95993.38;;;5.51;100.00
70954;BME280;58618;47.490;8.736;2023-04-22T01:02:57;96001.31;;;5.49;100.00
70954;BME280;58618;47.490;8.736;2023-04-22T01:05:45;95997.69;;;5.40;100.00
70954;BME280;58618;47.490;8.736;2023-04-22T01:08:33;95999.22;;;5.41;100.00
70954;BME280;58618;47.490;8.736;2023-04-22T01:11:20;95996.88;;;5.30;100.00
70954;BME280;58618;47.490;8.736;2023-04-22T01:14:09;95994.06;;;5.26;100.00
70954;BME280;58618;47.490;8.736;2023-04-22T01:16:57;95994.34;;;5.35;100.00
70954;BME280;58618;47.490;8.736;2023-04-22T01:19:44;95991.75;;;5.25;100.00
70954;BME280;58618;47.490;8.736;2023-04-22T01:22:35;95973.53;;;5.01;100.00
70954;BME280;58618;47.490;8.736;2023-04-22T01:25:26;95991.44;;;5.06;100.00
70954;BME280;58618;47.490;8.736;2023-04-22T01:28:15;95993.47;;;5.04;100.00
70954;BME280;58618;47.490;8.736;2023-04-22T01:31:03;96003.22;;;5.07;100.00
70954;BME280;58618;47.490;8.736;2023-04-22T01:33:51;96005.75;;;5.02;100.00
70954;BME280;58618;47.490;8.736;2023-04-22T01:36:38;95998.78;;;4.97;100.00
70954;BME280;58618;47.490;8.736;2023-04-22T01:39:26;95997.00;;;4.93;100.00
70954;BME280;58618;47.490;8.736;2023-04-22T01:42:14;95973.94;;;4.78;100.00
70954;BME280;58618;47.490;8.736;2023-04-22T01:45:03;95992.97;;;5.02;100.00
70954;BME280;58618;47.490;8.736;2023-04-22T01:47:50;95994.41;;;4.88;100.00
70954;BME280;58618;47.490;8.736;2023-04-22T01:50:37;95986.72;;;4.83;100.00
70954;BME280;58618;47.490;8.736;2023-04-22T01:53:25;95987.84;;;4.97;100.00
70954;BME280;58618;47.490;8.736;2023-04-22T01:56:12;95984.75;;;4.95;100.00
70954;BME280;58618;47.490;8.736;2023-04-22T01:59:01;95984.16;;;4.83;100.00
70954;BME280;58618;47.490;8.736;2023-04-22T02:01:48;95980.13;;;4.92;100.00
70954;BME280;58618;47.490;8.736;2023-04-22T02:04:36;95980.41;;;4.95;100.00
70954;BME280;58618;47.490;8.736;2023-04-22T02:07:23;95992.34;;;4.80;100.00
70954;BME280;58618;47.490;8.736;2023-04-22T02:10:11;95989.72;;;4.64;100.00
70954;BME280;58618;47.490;8.736;2023-04-22T02:12:59;96001.47;;;4.71;100.00
70954;BME280;58618;47.490;8.736;2023-04-22T02:15:47;96005.03;;;4.64;100.00
70954;BME280;58618;47.490;8.736;2023-04-22T02:18:35;96003.50;;;4.63;100.00
70954;BME280;58618;47.490;8.736;2023-04-22T02:21:22;95993.16;;;4.43;100.00
70954;BME280;58618;47.490;8.736;2023-04-22T02:24:09;96000.84;;;4.48;100.00
70954;BME280;58618;47.490;8.736;2023-04-22T02:26:57;95994.19;;;4.47;100.00
70954;BME280;58618;47.490;8.736;2023-04-22T02:29:44;95999.78;;;4.44;100.00
70954;BME280;58618;47.490;8.736;2023-04-22T02:32:33;96004.69;;;4.51;100.00
70954;BME280;58618;47.490;8.736;2023-04-22T02:35:21;96000.91;;;4.58;100.00
70954;BME280;58618;47.490;8.736;2023-04-22T02:38:09;95994.53;;;4.61;100.00
70954;BME280;58618;47.490;8.736;2023-04-22T02:40:56;95992.69;;;4.51;100.00
70954;BME280;58618;47.490;8.736;2023-04-22T02:43:43;95991.47;;;4.59;100.00
70954;BME280;58618;47.490;8.736;2023-04-22T02:46:31;95986.09;;;4.60;100.00
70954;BME280;58618;47.490;8.736;2023-04-22T02:49:20;95988.38;;;4.57;100.00
70954;BME280;58618;47.490;8.736;2023-04-22T02:52:07;95985.59;;;4.58;100.00
70954;BME280;58618;47.490;8.736;2023-04-22T02:54:54;95985.72;;;4.42;100.00
70954;BME280;58618;47.490;8.736;2023-04-22T02:57:42;95985.66;;;4.32;100.00
70954;BME280;58618;47.490;8.736;2023-04-22T03:00:29;95981.03;;;4.29;100.00
70954;BME280;58618;47.490;8.736;2023-04-22T03:03:16;95998.09;;;4.23;100.00
70954;BME280;58618;47.490;8.736;2023-04-22T03:06:05;95995.53;;;4.23;100.00
70954;BME280;58618;47.490;8.736;2023-04-22T03:08:53;95988.81;;;4.07;100.00
70954;BME280;58618;47.490;8.736;2023-04-22T03:11:41;95990.81;;;4.05;100.00
70954;BME280;58618;47.490;8.736;2023-04-22T03:14:28;96002.66;;;4.16;100.00
70954;BME280;58618;47.490;8.736;2023-04-22T03:17:15;96016.41;;;4.15;100.00
70954;BME280;58618;47.490;8.736;2023-04-22T03:20:04;96017.88;;;4.06;100.00
70954;BME280;58618;47.490;8.736;2023-04-22T03:22:53;96031.22;;;4.18;100.00
70954;BME280;58618;47.490;8.736;2023-04-22T03:25:40;96023.53;;;4.13;100.00
70954;BME280;58618;47.490;8.736;2023-04-22T03:28:28;96019.78;;;4.20;100.00
70954;BME280;58618;47.490;8.736;2023-04-22T03:31:15;96022.59;;;4.24;100.00
70954;BME280;58618;47.490;8.736;2023-04-22T03:34:02;96026.13;;;4.18;100.00
70954;BME280;58618;47.490;8.736;2023-04-22T03:36:50;96022.63;;;3.97;100.00
70954;BME280;58618;47.490;8.736;2023-04-22T03:39:38;96037.72;;;3.99;100.00
70954;BME280;58618;47.490;8.736;2023-04-22T03:42:25;96039.84;;;4.07;100.00
70954;BME280;58618;47.490;8.736;2023-04-22T03:45:13;96036.75;;;3.78;100.00
70954;BME280;58618;47.490;8.736;2023-04-22T03:48:00;96040.13;;;3.83;100.00
70954;BME280;58618;47.490;8.736;2023-04-22T03:50:47;96046.38;;;3.98;100.00
70954;BME280;58618;47.490;8.736;2023-04-22T03:53:35;96040.13;;;3.83;100.00
70954;BME280;58618;47.490;8.736;2023-04-22T03:56:23;96042.19;;;3.87;100.00
70954;BME280;58618;47.490;8.736;2023-04-22T03:59:10;96042.91;;;3.82;100.00
70954;BME280;58618;47.490;8.736;2023-04-22T04:01:58;96042.03;;;3.71;100.00
70954;BME280;58618;47.490;8.736;2023-04-22T04:04:45;96039.19;;;3.68;100.00
70954;BME280;58618;47.490;8.736;2023-04-22T04:07:32;96041.47;;;3.64;100.00
70954;BME280;58618;47.490;8.736;2023-04-22T04:10:20;96048.09;;;3.65;100.00
70954;BME280;58618;47.490;8.736;2023-04-22T04:13:08;96043.66;;;3.56;100.00
70954;BME280;58618;47.490;8.736;2023-04-22T04:15:56;96052.50;;;3.48;100.00
70954;BME280;58618;47.490;8.736;2023-04-22T04:18:43;96043.44;;;3.57;100.00
70954;BME280;58618;47.490;8.736;2023-04-22T04:21:30;96045.88;;;3.47;100.00
70954;BME280;58618;47.490;8.736;2023-04-22T04:24:18;96047.41;;;3.48;100.00
70954;BME280;58618;47.490;8.736;2023-04-22T04:27:06;96051.25;;;3.51;100.00
70954;BME280;58618;47.490;8.736;2023-04-22T04:29:55;96048.53;;;3.57;100.00
70954;BME280;58618;47.490;8.736;2023-04-22T04:32:42;96057.13;;;3.51;100.00
70954;BME280;58618;47.490;8.736;2023-04-22T04:35:30;96027.25;;;3.47;100.00
70954;BME280;58618;47.490;8.736;2023-04-22T04:38:19;96045.13;;;3.73;100.00
70954;BME280;58618;47.490;8.736;2023-04-22T04:41:06;96042.81;;;3.99;100.00
70954;BME280;58618;47.490;8.736;2023-04-22T04:43:54;96041.22;;;3.93;100.00
70954;BME280;58618;47.490;8.736;2023-04-22T04:46:43;96032.03;;;3.92;100.00
70954;BME280;58618;47.490;8.736;2023-04-22T04:49:31;96039.72;;;3.97;100.00
70954;BME280;58618;47.490;8.736;2023-04-22T04:52:24;96047.34;;;3.92;100.00
70954;BME280;58618;47.490;8.736;2023-04-22T04:55:12;96049.31;;;4.11;100.00
70954;BME280;58618;47.490;8.736;2023-04-22T04:57:59;96039.25;;;4.00;100.00
70954;BME280;58618;47.490;8.736;2023-04-22T05:00:46;96044.16;;;4.06;100.00
70954;BME280;58618;47.490;8.736;2023-04-22T05:03:35;96053.16;;;4.14;100.00
70954;BME280;58618;47.490;8.736;2023-04-22T05:06:23;96053.88;;;4.41;100.00
70954;BME280;58618;47.490;8.736;2023-04-22T05:09:11;96054.97;;;4.50;100.00
70954;BME280;58618;47.490;8.736;2023-04-22T05:11:59;96051.63;;;4.45;100.00
70954;BME280;58618;47.490;8.736;2023-04-22T05:14:46;96067.94;;;4.76;100.00
70954;BME280;58618;47.490;8.736;2023-04-22T05:17:33;96058.19;;;4.73;100.00
70954;BME280;58618;47.490;8.736;2023-04-22T05:20:22;96053.66;;;4.80;100.00
70954;BME280;58618;47.490;8.736;2023-04-22T05:23:10;96059.53;;;4.80;100.00
70954;BME280;58618;47.490;8.736;2023-04-22T05:25:57;96051.13;;;4.85;100.00
70954;BME280;58618;47.490;8.736;2023-04-22T05:28:44;96051.16;;;4.90;100.00
70954;BME280;58618;47.490;8.736;2023-04-22T05:31:32;96050.16;;;4.91;100.00
70954;BME280;58618;47.490;8.736;2023-04-22T05:34:19;96046.06;;;4.95;100.00
70954;BME280;58618;47.490;8.736;2023-04-22T05:37:08;96036.94;;;5.09;100.00
70954;BME280;58618;47.490;8.736;2023-04-22T05:39:56;96052.16;;;5.41;100.00
70954;BME280;58618;47.490;8.736;2023-04-22T05:42:43;96051.59;;;5.96;100.00
70954;BME280;58618;47.490;8.736;2023-04-22T05:45:30;96059.31;;;6.31;100.00
70954;BME280;58618;47.490;8.736;2023-04-22T05:48:17;96070.06;;;6.69;100.00
70954;BME280;58618;47.490;8.736;2023-04-22T05:51:05;96068.72;;;7.02;100.00
70954;BME280;58618;47.490;8.736;2023-04-22T05:53:53;96064.38;;;7.02;100.00
70954;BME280;58618;47.490;8.736;2023-04-22T05:56:41;96065.78;;;7.44;100.00
70954;BME280;58618;47.490;8.736;2023-04-22T05:59:28;96070.84;;;7.64;100.00
70954;BME280;58618;47.490;8.736;2023-04-22T06:02:15;96074.53;;;7.33;100.00
70954;BME280;58618;47.490;8.736;2023-04-22T06:05:03;96070.53;;;6.96;100.00
70954;BME280;58618;47.490;8.736;2023-04-22T06:07:51;96073.59;;;7.08;100.00
70954;BME280;58618;47.490;8.736;2023-04-22T06:10:39;96075.63;;;7.16;100.00
70954;BME280;58618;47.490;8.736;2023-04-22T06:13:26;96080.16;;;7.45;100.00
70954;BME280;58618;47.490;8.736;2023-04-22T06:16:14;96079.03;;;7.71;100.00
70954;BME280;58618;47.490;8.736;2023-04-22T06:19:01;96071.38;;;7.51;100.00
70954;BME280;58618;47.490;8.736;2023-04-22T06:21:49;96071.53;;;7.80;100.00
70954;BME280;58618;47.490;8.736;2023-04-22T06:24:36;96074.53;;;8.36;100.00
70954;BME280;58618;47.490;8.736;2023-04-22T06:27:24;96085.09;;;8.68;100.00
70954;BME280;58618;47.490;8.736;2023-04-22T06:30:12;96073.75;;;9.69;100.00
70954;BME280;58618;47.490;8.736;2023-04-22T06:33:00;96082.72;;;10.33;100.00
70954;BME280;58618;47.490;8.736;2023-04-22T06:35:47;96082.34;;;11.18;100.00
70954;BME280;58618;47.490;8.736;2023-04-22T06:38:34;96083.31;;;11.50;100.00
70954;BME280;58618;47.490;8.736;2023-04-22T06:41:22;96086.59;;;11.41;98.25
70954;BME280;58618;47.490;8.736;2023-04-22T06:44:11;96081.16;;;12.06;96.91
70954;BME280;58618;47.490;8.736;2023-04-22T06:46:58;96085.63;;;13.03;89.82
70954;BME280;58618;47.490;8.736;2023-04-22T06:49:45;96082.88;;;14.73;81.11
70954;BME280;58618;47.490;8.736;2023-04-22T06:52:33;96090.66;;;14.91;79.51
70954;BME280;58618;47.490;8.736;2023-04-22T06:55:20;96094.97;;;15.62;75.33
70954;BME280;58618;47.490;8.736;2023-04-22T06:58:08;96089.47;;;14.11;83.34
70954;BME280;58618;47.490;8.736;2023-04-22T07:00:56;96097.56;;;16.13;73.97
70954;BME280;58618;47.490;8.736;2023-04-22T07:03:44;96088.75;;;17.24;67.73
70954;BME280;58618;47.490;8.736;2023-04-22T07:06:31;96089.00;;;17.44;67.66
70954;BME280;58618;47.490;8.736;2023-04-22T07:09:19;96095.59;;;18.54;59.73
70954;BME280;58618;47.490;8.736;2023-04-22T07:12:06;96090.63;;;18.37;59.31
70954;BME280;58618;47.490;8.736;2023-04-22T07:14:53;96082.38;;;18.63;59.73
70954;BME280;58618;47.490;8.736;2023-04-22T07:17:42;96087.25;;;17.96;60.31
70954;BME280;58618;47.490;8.736;2023-04-22T07:20:29;96100.22;;;18.88;60.04
70954;BME280;58618;47.490;8.736;2023-04-22T07:23:17;96095.44;;;18.23;63.83
70954;BME280;58618;47.490;8.736;2023-04-22T07:26:05;96094.28;;;18.08;61.04
70954;BME280;58618;47.490;8.736;2023-04-22T07:28:52;96092.22;;;18.97;58.46
70954;BME280;58618;47.490;8.736;2023-04-22T07:31:39;96091.66;;;19.35;55.74
70954;BME280;58618;47.490;8.736;2023-04-22T07:34:28;96076.50;;;17.37;61.69
70954;BME280;58618;47.490;8.736;2023-04-22T07:37:15;96081.19;;;17.80;61.56
70954;BME280;58618;47.490;8.736;2023-04-22T07:40:03;96085.16;;;16.72;64.23
70954;BME280;58618;47.490;8.736;2023-04-22T07:42:56;96080.28;;;17.27;64.45
70954;BME280;58618;47.490;8.736;2023-04-22T07:45:44;96085.72;;;17.47;65.14
70954;BME280;58618;47.490;8.736;2023-04-22T07:48:31;96085.94;;;19.14;58.27
70954;BME280;58618;47.490;8.736;2023-04-22T07:51:20;96084.91;;;20.35;51.68
70954;BME280;58618;47.490;8.736;2023-04-22T07:54:07;96080.06;;;18.89;56.55
70954;BME280;58618;47.490;8.736;2023-04-22T07:56:54;96081.84;;;19.01;54.29
70954;BME280;58618;47.490;8.736;2023-04-22T07:59:43;96075.09;;;18.56;55.97
70954;BME280;58618;47.490;8.736;2023-04-22T08:02:30;96079.78;;;20.23;49.97
70954;BME280;58618;47.490;8.736;2023-04-22T08:05:17;96079.03;;;20.42;49.71
70954;BME280;58618;47.490;8.736;2023-04-22T08:08:06;96085.13;;;18.82;54.62
70954;BME280;58618;47.490;8.736;2023-04-22T08:10:54;96078.81;;;18.15;52.90
70954;BME280;58618;47.490;8.736;2023-04-22T08:13:41;96082.31;;;18.47;55.70
70954;BME280;58618;47.490;8.736;2023-04-22T08:16:28;96081.50;;;18.86;54.76
70954;BME280;58618;47.490;8.736;2023-04-22T08:19:16;96070.75;;;19.35;53.10
70954;BME280;58618;47.490;8.736;2023-04-22T08:22:03;96072.94;;;18.18;56.46
70954;BME280;58618;47.490;8.736;2023-04-22T08:24:52;96082.84;;;18.80;57.72
70954;BME280;58618;47.490;8.736;2023-04-22T08:27:39;96088.41;;;18.11;57.46
70954;BME280;58618;47.490;8.736;2023-04-22T08:30:26;96078.03;;;18.82;60.54
70954;BME280;58618;47.490;8.736;2023-04-22T08:33:14;96074.91;;;18.49;60.71
70954;BME280;58618;47.490;8.736;2023-04-22T08:36:01;96070.38;;;19.36;57.30
70954;BME280;58618;47.490;8.736;2023-04-22T08:38:49;96075.63;;;19.52;57.92
70954;BME280;58618;47.490;8.736;2023-04-22T08:41:38;96055.63;;;18.97;53.18
70954;BME280;58618;47.490;8.736;2023-04-22T08:44:25;96057.31;;;19.36;55.87
70954;BME280;58618;47.490;8.736;2023-04-22T08:47:13;96055.63;;;19.95;55.66
70954;BME280;58618;47.490;8.736;2023-04-22T08:50:02;96065.53;;;19.86;52.67
70954;BME280;58618;47.490;8.736;2023-04-22T08:52:51;96070.16;;;20.31;53.46
70954;BME280;58618;47.490;8.736;2023-04-22T08:55:39;96064.25;;;19.45;56.59
70954;BME280;58618;47.490;8.736;2023-04-22T08:58:32;96043.59;;;19.24;56.46
70954;BME280;58618;47.490;8.736;2023-04-22T09:01:20;96067.44;;;20.43;55.92
70954;BME280;58618;47.490;8.736;2023-04-22T09:04:09;96073.72;;;20.19;54.24
70954;BME280;58618;47.490;8.736;2023-04-22T09:07:19;96073.97;;;20.14;49.81
70954;BME280;58618;47.490;8.736;2023-04-22T09:10:09;96065.97;;;20.26;49.97
70954;BME280;58618;47.490;8.736;2023-04-22T09:12:57;96022.97;;;20.08;49.54
70954;BME280;58618;47.490;8.736;2023-04-22T09:15:47;96037.91;;;19.37;54.48
70954;BME280;58618;47.490;8.736;2023-04-22T09:18:40;96014.13;;;19.77;52.14
70954;BME280;58618;47.490;8.736;2023-04-22T09:21:28;96038.63;;;19.69;48.17
70954;BME280;58618;47.490;8.736;2023-04-22T09:24:17;96031.50;;;20.62;47.10
70954;BME280;58618;47.490;8.736;2023-04-22T09:27:05;96040.88;;;19.87;52.94
70954;BME280;58618;47.490;8.736;2023-04-22T09:29:52;96042.81;;;20.09;49.43
70954;BME280;58618;47.490;8.736;2023-04-22T09:32:41;96041.69;;;20.10;47.83
70954;BME280;58618;47.490;8.736;2023-04-22T09:35:30;96035.31;;;19.72;48.49
70954;BME280;58618;47.490;8.736;2023-04-22T09:38:19;96029.09;;;19.77;48.91
70954;BME280;58618;47.490;8.736;2023-04-22T09:41:08;96020.72;;;19.21;54.43
70954;BME280;58618;47.490;8.736;2023-04-22T09:43:56;96007.38;;;19.26;55.36
70954;BME280;58618;47.490;8.736;2023-04-22T09:46:43;96018.94;;;18.93;54.27
70954;BME280;58618;47.490;8.736;2023-04-22T09:49:35;96013.38;;;18.79;53.28
70954;BME280;58618;47.490;8.736;2023-04-22T09:52:24;96005.09;;;19.40;49.97
70954;BME280;58618;47.490;8.736;2023-04-22T09:55:13;96003.31;;;19.79;47.86
70954;BME280;58618;47.490;8.736;2023-04-22T09:58:04;96001.34;;;19.92;45.56
70954;BME280;58618;47.490;8.736;2023-04-22T10:00:54;95990.06;;;19.37;49.83
70954;BME280;58618;47.490;8.736;2023-04-22T10:03:42;96002.38;;;19.52;46.48
70954;BME280;58618;47.490;8.736;2023-04-22T10:06:31;96005.75;;;19.88;45.49
70954;BME280;58618;47.490;8.736;2023-04-22T10:09:20;96003.75;;;19.81;45.76
70954;BME280;58618;47.490;8.736;2023-04-22T10:12:08;96011.09;;;19.75;46.25
70954;BME280;58618;47.490;8.736;2023-04-22T10:14:57;96009.56;;;19.55;50.31
70954;BME280;58618;47.490;8.736;2023-04-22T10:17:44;95999.25;;;19.31;48.68
70954;BME280;58618;47.490;8.736;2023-04-22T10:20:35;95975.06;;;19.69;44.73
70954;BME280;58618;47.490;8.736;2023-04-22T10:23:25;95993.16;;;19.93;45.38
70954;BME280;58618;47.490;8.736;2023-04-22T10:26:39;95994.63;;;19.40;46.78
70954;BME280;58618;47.490;8.736;2023-04-22T10:29:35;95993.59;;;19.60;45.57
70954;BME280;58618;47.490;8.736;2023-04-22T10:32:25;95999.69;;;19.33;50.38
70954;BME280;58618;47.490;8.736;2023-04-22T10:35:13;95961.84;;;19.11;49.90
70954;BME280;58618;47.490;8.736;2023-04-22T10:38:06;95980.50;;;19.79;45.74
70954;BME280;58618;47.490;8.736;2023-04-22T10:40:59;95966.34;;;19.80;46.20
70954;BME280;58618;47.490;8.736;2023-04-22T10:43:48;95966.47;;;19.88;45.12
70954;BME280;58618;47.490;8.736;2023-04-22T10:49:49;95984.38;;;19.86;50.95
70954;BME280;58618;47.490;8.736;2023-04-22T10:52:37;95977.06;;;19.95;46.77
70954;BME280;58618;47.490;8.736;2023-04-22T10:55:28;95971.28;;;20.05;44.23
70954;BME280;58618;47.490;8.736;2023-04-22T10:58:34;95954.91;;;20.08;45.19
70954;BME280;58618;47.490;8.736;2023-04-22T11:01:21;95959.31;;;20.04;46.43
70954;BME280;58618;47.490;8.736;2023-04-22T11:04:18;95956.53;;;20.16;44.04
70954;BME280;58618;47.490;8.736;2023-04-22T11:07:14;95969.50;;;20.09;47.22
70954;BME280;58618;47.490;8.736;2023-04-22T11:10:07;95975.03;;;20.04;54.97
70954;BME280;58618;47.490;8.736;2023-04-22T11:13:01;95965.28;;;20.04;44.90
70954;BME280;58618;47.490;8.736;2023-04-22T11:15:53;95960.13;;;20.08;46.37
70954;BME280;58618;47.490;8.736;2023-04-22T11:18:40;95975.41;;;20.06;50.67
70954;BME280;58618;47.490;8.736;2023-04-22T11:21:32;95971.56;;;20.00;46.76
70954;BME280;58618;47.490;8.736;2023-04-22T11:24:20;95976.41;;;19.98;48.46
70954;BME280;58618;47.490;8.736;2023-04-22T11:27:07;95981.50;;;19.91;51.98
70954;BME280;58618;47.490;8.736;2023-04-22T11:30:00;95986.84;;;19.78;53.92
70954;BME280;58618;47.490;8.736;2023-04-22T11:32:51;95994.91;;;19.89;51.05
70954;BME280;58618;47.490;8.736;2023-04-22T11:35:38;95989.06;;;19.96;45.25
70954;BME280;58618;47.490;8.736;2023-04-22T11:38:27;95996.50;;;19.94;46.22
70954;BME280;58618;47.490;8.736;2023-04-22T11:41:19;95988.78;;;19.81;48.05
70954;BME280;58618;47.490;8.736;2023-04-22T11:44:07;95986.50;;;19.80;47.47
70954;BME280;58618;47.490;8.736;2023-04-22T11:46:55;95991.31;;;19.78;46.73
70954;BME280;58618;47.490;8.736;2023-04-22T11:49:54;95998.88;;;19.64;48.41
70954;BME280;58618;47.490;8.736;2023-04-22T11:52:44;95995.72;;;19.74;47.57
70954;BME280;58618;47.490;8.736;2023-04-22T11:55:33;95995.34;;;19.72;50.40
70954;BME280;58618;47.490;8.736;2023-04-22T11:58:23;95999.66;;;19.83;51.73
70954;BME280;58618;47.490;8.736;2023-04-22T12:01:12;95996.78;;;19.89;45.69
70954;BME280;58618;47.490;8.736;2023-04-22T12:04:00;96003.13;;;19.88;46.49
70954;BME280;58618;47.490;8.736;2023-04-22T12:06:50;95989.63;;;19.86;50.92
70954;BME280;58618;47.490;8.736;2023-04-22T12:09:38;95983.78;;;19.92;51.51
70954;BME280;58618;47.490;8.736;2023-04-22T12:12:25;95972.81;;;20.06;45.36
70954;BME280;58618;47.490;8.736;2023-04-22T12:15:13;95984.84;;;20.10;49.50
70954;BME280;58618;47.490;8.736;2023-04-22T12:18:01;95991.00;;;20.18;49.80
70954;BME280;58618;47.490;8.736;2023-04-22T12:20:50;95946.34;;;19.92;47.55
70954;BME280;58618;47.490;8.736;2023-04-22T12:23:42;95993.75;;;20.06;49.74
70954;BME280;58618;47.490;8.736;2023-04-22T12:26:30;95991.81;;;20.22;46.04
70954;BME280;58618;47.490;8.736;2023-04-22T12:29:25;95991.53;;;20.46;50.56
70954;BME280;58618;47.490;8.736;2023-04-22T12:32:13;95989.00;;;20.73;48.16
70954;BME280;58618;47.490;8.736;2023-04-22T12:35:00;95994.78;;;20.62;47.01
70954;BME280;58618;47.490;8.736;2023-04-22T12:37:47;95992.28;;;20.47;48.86
70954;BME280;58618;47.490;8.736;2023-04-22T12:40:36;95991.41;;;20.39;49.84
70954;BME280;58618;47.490;8.736;2023-04-22T12:43:24;95987.88;;;20.51;45.81
70954;BME280;58618;47.490;8.736;2023-04-22T12:46:11;95990.78;;;20.46;46.50
70954;BME280;58618;47.490;8.736;2023-04-22T12:48:59;95977.81;;;20.76;46.06
70954;BME280;58618;47.490;8.736;2023-04-22T12:51:46;95977.38;;;20.74;46.95
70954;BME280;58618;47.490;8.736;2023-04-22T12:54:34;95981.06;;;20.92;44.73
70954;BME280;58618;47.490;8.736;2023-04-22T12:57:23;95987.81;;;20.93;47.92
70954;BME280;58618;47.490;8.736;2023-04-22T13:00:11;95974.84;;;20.77;43.67
70954;BME280;58618;47.490;8.736;2023-04-22T13:02:59;95966.59;;;21.24;43.61
70954;BME280;58618;47.490;8.736;2023-04-22T13:05:46;95966.94;;;21.00;43.43
70954;BME280;58618;47.490;8.736;2023-04-22T13:08:34;95961.91;;;21.67;42.22
70954;BME280;58618;47.490;8.736;2023-04-22T13:11:22;95957.97;;;21.54;42.80
70954;BME280;58618;47.490;8.736;2023-04-22T13:14:11;95968.13;;;21.25;46.55
70954;BME280;58618;47.490;8.736;2023-04-22T13:16:59;95961.34;;;21.24;46.41
70954;BME280;58618;47.490;8.736;2023-04-22T13:19:47;95957.34;;;20.85;46.89
70954;BME280;58618;47.490;8.736;2023-04-22T13:22:35;95961.41;;;21.05;47.09
70954;BME280;58618;47.490;8.736;2023-04-22T13:25:23;95960.47;;;21.17;43.60
70954;BME280;58618;47.490;8.736;2023-04-22T13:28:10;95964.28;;;21.19;44.20
70954;BME280;58618;47.490;8.736;2023-04-22T13:30:59;95965.84;;;21.01;47.88
70954;BME280;58618;47.490;8.736;2023-04-22T13:33:46;95970.88;;;20.64;49.11
70954;BME280;58618;47.490;8.736;2023-04-22T13:36:34;95965.31;;;20.46;50.34
70954;BME280;58618;47.490;8.736;2023-04-22T13:39:21;95977.91;;;20.18;48.53
70954;BME280;58618;47.490;8.736;2023-04-22T13:42:09;95967.28;;;20.30;46.93
70954;BME280;58618;47.490;8.736;2023-04-22T13:44:57;95969.13;;;20.30;46.99
70954;BME280;58618;47.490;8.736;2023-04-22T13:47:45;95969.84;;;20.07;49.76
70954;BME280;58618;47.490;8.736;2023-04-22T13:50:33;95960.41;;;20.03;46.83
70954;BME280;58618;47.490;8.736;2023-04-22T13:53:20;95964.00;;;19.75;48.68
70954;BME280;58618;47.490;8.736;2023-04-22T13:56:07;95964.47;;;19.81;48.67
70954;BME280;58618;47.490;8.736;2023-04-22T13:58:55;95965.09;;;19.55;48.48
70954;BME280;58618;47.490;8.736;2023-04-22T14:01:42;95972.03;;;19.32;49.73
70954;BME280;58618;47.490;8.736;2023-04-22T14:04:31;95966.78;;;19.32;51.86
70954;BME280;58618;47.490;8.736;2023-04-22T14:07:19;95972.47;;;19.18;52.84
70954;BME280;58618;47.490;8.736;2023-04-22T14:10:06;95977.47;;;19.08;52.26
70954;BME280;58618;47.490;8.736;2023-04-22T14:12:57;95974.09;;;18.91;53.11
70954;BME280;58618;47.490;8.736;2023-04-22T14:15:44;95977.28;;;19.01;50.63
70954;BME280;58618;47.490;8.736;2023-04-22T14:18:31;95976.53;;;19.00;51.08
70954;BME280;58618;47.490;8.736;2023-04-22T14:21:22;95990.78;;;19.03;52.41
70954;BME280;58618;47.490;8.736;2023-04-22T14:24:09;95993.66;;;18.66;53.67
70954;BME280;58618;47.490;8.736;2023-04-22T14:26:58;95986.91;;;18.37;56.59
70954;BME280;58618;47.490;8.736;2023-04-22T14:29:46;95986.50;;;18.51;52.91
70954;BME280;58618;47.490;8.736;2023-04-22T14:32:37;95993.56;;;18.63;54.70
70954;BME280;58618;47.490;8.736;2023-04-22T14:35:24;95995.50;;;18.81;53.38
70954;BME280;58618;47.490;8.736;2023-04-22T14:38:13;95990.09;;;18.74;54.93
70954;BME280;58618;47.490;8.736;2023-04-22T14:41:00;95989.28;;;18.70;54.57
70954;BME280;58618;47.490;8.736;2023-04-22T14:43:48;95990.09;;;18.74;56.68
70954;BME280;58618;47.490;8.736;2023-04-22T14:46:36;96003.91;;;18.59;54.73
70954;BME280;58618;47.490;8.736;2023-04-22T14:49:23;96002.22;;;18.23;55.56
70954;BME280;58618;47.490;8.736;2023-04-22T14:52:10;96007.78;;;18.22;54.97
70954;BME280;58618;47.490;8.736;2023-04-22T14:54:59;95999.84;;;17.90;55.29